createdAt,value
2018-03-22T00:00:15.704Z,4.28
2018-03-22T00:02:43.187Z,4.50
2018-03-22T00:05:11.431Z,3.90
2018-03-22T00:07:38.933Z,4.20
2018-03-22T00:10:07.211Z,4.55
2018-03-22T00:12:35.463Z,4.43
2018-03-22T00:15:02.923Z,4.75
2018-03-22T00:17:30.430Z,4.30
2018-03-22T00:19:57.942Z,4.90
2018-03-22T00:22:37.245Z,3.95
2018-03-22T00:25:04.713Z,4.43
2018-03-22T00:27:32.210Z,4.37
2018-03-22T00:30:00.447Z,4.55
2018-03-22T00:32:28.021Z,4.78
2018-03-22T00:34:55.474Z,4.47
2018-03-22T00:37:22.954Z,4.15
2018-03-22T00:39:51.209Z,4.62
2018-03-22T00:42:18.678Z,4.70
2018-03-22T00:44:46.152Z,4.22
2018-03-22T00:47:14.415Z,4.60
2018-03-22T00:49:42.679Z,5.00
2018-03-22T00:52:10.140Z,4.32
2018-03-22T00:54:37.629Z,4.40
2018-03-22T00:57:05.118Z,5.07
2018-03-22T00:59:32.609Z,4.65
2018-03-22T01:02:00.079Z,6.00
2018-03-22T01:04:28.343Z,4.47
2018-03-22T01:06:55.830Z,3.05
2018-03-22T01:09:24.083Z,3.40
2018-03-22T01:11:51.534Z,3.80
2018-03-22T01:14:19.023Z,5.12
2018-03-22T01:16:47.238Z,4.07
2018-03-22T01:19:14.738Z,4.82
2018-03-22T01:21:42.973Z,5.07
2018-03-22T01:24:10.442Z,4.60
2018-03-22T01:26:37.918Z,4.62
2018-03-22T01:29:05.379Z,4.50
2018-03-22T01:31:32.863Z,4.35
2018-03-22T01:34:00.330Z,4.10
2018-03-22T01:36:27.947Z,3.75
2018-03-22T01:38:55.410Z,4.45
2018-03-22T01:41:22.882Z,4.28
2018-03-22T01:43:51.109Z,5.45
2018-03-22T01:46:18.609Z,4.70
2018-03-22T01:48:46.066Z,4.60
2018-03-22T01:51:14.330Z,4.30
2018-03-22T01:53:41.799Z,3.90
2018-03-22T01:56:10.184Z,5.05
2018-03-22T01:58:38.424Z,4.78
2018-03-22T02:01:05.882Z,5.20
2018-03-22T02:03:33.359Z,3.95
2018-03-22T02:06:00.809Z,4.45
2018-03-22T02:08:28.290Z,4.32
2018-03-22T02:10:56.513Z,3.53
2018-03-22T02:13:24.008Z,5.53
2018-03-22T02:15:51.464Z,5.47
2018-03-22T02:18:20.442Z,4.43
2018-03-22T02:20:49.433Z,4.35
2018-03-22T02:23:16.906Z,4.20
2018-03-22T02:25:44.413Z,4.87
2018-03-22T02:28:11.880Z,4.43
2018-03-22T02:30:39.386Z,5.00
2018-03-22T02:33:06.839Z,4.95
2018-03-22T02:35:34.289Z,6.37
2018-03-22T02:38:01.767Z,6.35
2018-03-22T02:40:30.023Z,5.10
2018-03-22T02:42:57.501Z,6.03
2018-03-22T02:45:25.750Z,4.82
2018-03-22T02:47:53.268Z,6.20
2018-03-22T02:50:20.724Z,6.55
2018-03-22T02:52:48.249Z,6.15
2018-03-22T02:55:16.528Z,5.28
2018-03-22T02:57:44.852Z,6.68
2018-03-22T03:00:12.315Z,6.75
2018-03-22T03:02:39.771Z,5.25
2018-03-22T03:05:07.302Z,5.18
2018-03-22T03:07:34.718Z,5.68
2018-03-22T03:10:02.199Z,5.65
2018-03-22T03:12:30.422Z,5.75
2018-03-22T03:14:57.919Z,5.43
2018-03-22T03:17:25.379Z,4.82
2018-03-22T03:19:53.611Z,5.43
2018-03-22T03:22:21.095Z,6.22
2018-03-22T03:24:48.602Z,6.03
2018-03-22T03:27:16.045Z,5.72
2018-03-22T03:29:44.294Z,6.03
2018-03-22T03:32:11.772Z,5.72
2018-03-22T03:34:40.022Z,5.78
2018-03-22T03:37:07.511Z,5.68
2018-03-22T03:39:35.743Z,5.82
2018-03-22T03:42:03.209Z,5.28
2018-03-22T03:44:30.684Z,5.68
2018-03-22T03:46:58.175Z,5.72
2018-03-22T03:49:25.657Z,5.70
2018-03-22T03:51:53.147Z,4.82
2018-03-22T03:54:20.661Z,5.80
2018-03-22T03:56:48.119Z,5.15
2018-03-22T03:59:15.623Z,6.05
2018-03-22T04:01:43.176Z,5.25
2018-03-22T04:04:10.634Z,6.32
2018-03-22T04:06:38.085Z,3.90
2018-03-22T04:09:05.560Z,4.80
2018-03-22T04:11:33.018Z,5.45
2018-03-22T04:14:00.505Z,3.80
2018-03-22T04:16:27.985Z,6.50
2018-03-22T04:18:55.473Z,5.32
2018-03-22T04:21:22.925Z,6.07
2018-03-22T04:23:50.425Z,5.97
2018-03-22T04:26:18.660Z,4.18
2018-03-22T04:28:46.130Z,5.72
2018-03-22T04:31:13.681Z,4.65
2018-03-22T04:33:41.171Z,4.93
2018-03-22T04:36:09.420Z,8.65
2018-03-22T04:38:36.878Z,10.57
2018-03-22T04:41:04.373Z,6.37
2018-03-22T04:43:31.894Z,5.12
2018-03-22T04:45:59.387Z,7.03
2018-03-22T04:48:27.603Z,5.12
2018-03-22T04:50:55.118Z,6.57
2018-03-22T04:53:23.362Z,5.85
2018-03-22T04:55:50.834Z,5.32
2018-03-22T04:58:18.330Z,5.95
2018-03-22T05:00:45.782Z,5.15
2018-03-22T05:03:13.301Z,5.32
2018-03-22T05:05:42.284Z,5.10
2018-03-22T05:08:10.573Z,3.92
2018-03-22T05:10:38.023Z,4.65
2018-03-22T05:13:05.510Z,5.57
2018-03-22T05:15:33.739Z,6.03
2018-03-22T05:18:01.238Z,7.43
2018-03-22T05:20:29.470Z,4.72
2018-03-22T05:22:56.947Z,7.68
2018-03-22T05:25:24.430Z,5.00
2018-03-22T05:27:52.676Z,6.25
2018-03-22T05:30:20.145Z,6.65
2018-03-22T05:32:47.652Z,4.70
2018-03-22T05:35:15.946Z,3.60
2018-03-22T05:37:43.394Z,5.93
2018-03-22T05:40:10.881Z,7.18
2018-03-22T05:42:38.355Z,8.15
2018-03-22T05:45:05.843Z,7.05
2018-03-22T05:47:34.073Z,7.57
2018-03-22T05:50:01.594Z,6.57
2018-03-22T05:52:29.072Z,4.12
2018-03-22T05:54:56.549Z,5.87
2018-03-22T05:57:24.026Z,7.65
2018-03-22T05:59:51.514Z,7.12
2018-03-22T06:02:18.982Z,6.00
2018-03-22T06:04:46.458Z,7.37
2018-03-22T06:07:13.946Z,7.82
2018-03-22T06:09:41.441Z,8.13
2018-03-22T06:12:08.915Z,7.87
2018-03-22T06:14:36.405Z,7.05
2018-03-22T06:17:03.870Z,6.07
2018-03-22T06:19:31.350Z,5.70
2018-03-22T06:21:59.580Z,6.25
2018-03-22T06:24:27.189Z,6.12
2018-03-22T06:26:55.429Z,6.75
2018-03-22T06:29:22.884Z,6.53
2018-03-22T06:31:50.394Z,6.43
2018-03-22T06:34:18.619Z,7.00
2018-03-22T06:36:46.115Z,6.07
2018-03-22T06:39:14.368Z,7.62
2018-03-22T06:41:41.846Z,6.07
2018-03-22T06:44:10.082Z,7.50
2018-03-22T06:46:38.320Z,6.15
2018-03-22T06:49:05.784Z,6.68
2018-03-22T06:51:33.278Z,7.00
2018-03-22T06:54:00.774Z,7.53
2018-03-22T06:56:29.623Z,7.65
2018-03-22T06:58:57.087Z,9.00
2018-03-22T07:01:24.593Z,8.40
2018-03-22T07:03:52.119Z,7.43
2018-03-22T07:06:19.600Z,7.10
2018-03-22T07:08:47.866Z,7.60
2018-03-22T07:11:16.138Z,6.80
2018-03-22T07:13:43.626Z,7.75
2018-03-22T07:16:11.096Z,7.90
2018-03-22T07:18:38.599Z,7.68
2018-03-22T07:21:06.832Z,6.95
2018-03-22T07:23:34.334Z,7.87
2018-03-22T07:26:01.812Z,7.35
2018-03-22T07:28:30.062Z,8.15
2018-03-22T07:30:57.526Z,9.57
2018-03-22T07:33:25.034Z,8.18
2018-03-22T07:35:52.503Z,6.60
2018-03-22T07:38:19.979Z,7.32
2018-03-22T07:40:47.444Z,7.22
2018-03-22T07:43:20.686Z,7.22
2018-03-22T07:45:48.224Z,6.93
2018-03-22T07:48:15.703Z,6.90
2018-03-22T07:50:43.188Z,6.50
2018-03-22T07:53:10.643Z,6.82
2018-03-22T07:55:38.144Z,6.10
2018-03-22T07:58:05.962Z,6.87
2018-03-22T08:00:33.465Z,6.55
2018-03-22T08:03:00.922Z,6.87
2018-03-22T08:05:28.411Z,6.37
2018-03-22T08:07:56.635Z,7.30
2018-03-22T08:10:24.125Z,10.00
2018-03-22T08:12:51.582Z,10.30
2018-03-22T08:15:19.082Z,7.43
2018-03-22T08:17:46.541Z,6.18
2018-03-22T08:20:14.058Z,7.45
2018-03-22T08:22:41.501Z,5.65
2018-03-22T08:25:08.962Z,5.87
2018-03-22T08:27:36.498Z,5.68
2018-03-22T08:30:03.966Z,5.93
2018-03-22T08:32:31.466Z,6.15
2018-03-22T08:34:58.888Z,6.75
2018-03-22T08:37:26.365Z,7.15
2018-03-22T08:39:54.602Z,6.20
2018-03-22T08:42:22.053Z,7.18
2018-03-22T08:44:49.542Z,6.82
2018-03-22T08:47:17.034Z,5.70
2018-03-22T08:49:44.507Z,6.22
2018-03-22T08:52:12.000Z,6.05
2018-03-22T08:54:39.479Z,7.10
2018-03-22T08:57:06.942Z,6.55
2018-03-22T08:59:35.185Z,6.53
2018-03-22T09:02:02.649Z,7.30
2018-03-22T09:04:30.125Z,6.18
2018-03-22T09:06:57.606Z,6.22
2018-03-22T09:09:25.854Z,6.55
2018-03-22T09:11:53.366Z,6.65
2018-03-22T09:14:20.836Z,5.95
2018-03-22T09:16:48.328Z,6.65
2018-03-22T09:19:17.340Z,6.47
2018-03-22T09:21:45.563Z,6.55
2018-03-22T09:24:13.426Z,6.75
2018-03-22T09:26:46.734Z,6.43
2018-03-22T09:29:14.228Z,6.05
2018-03-22T09:31:41.673Z,6.30
2018-03-22T09:34:09.156Z,7.50
2018-03-22T09:36:37.412Z,5.95
2018-03-22T09:39:05.653Z,5.80
2018-03-22T09:41:33.977Z,5.28
2018-03-22T09:44:01.421Z,5.50
2018-03-22T09:46:28.923Z,5.50
2018-03-22T09:48:56.390Z,5.55
2018-03-22T09:51:23.911Z,5.82
2018-03-22T09:53:51.377Z,6.25
2018-03-22T09:56:19.645Z,5.65
2018-03-22T09:58:47.886Z,5.60
2018-03-22T10:01:15.363Z,5.68
2018-03-22T10:03:42.868Z,6.15
2018-03-22T10:06:10.335Z,5.57
2018-03-22T10:08:37.809Z,5.28
2018-03-22T10:11:05.295Z,5.62
2018-03-22T10:13:32.742Z,5.12
2018-03-22T10:16:00.228Z,4.85
2018-03-22T10:18:28.462Z,5.68
2018-03-22T10:20:55.953Z,5.28
2018-03-22T10:23:23.414Z,6.03
2018-03-22T10:25:51.660Z,5.12
2018-03-22T10:28:19.156Z,4.93
2018-03-22T10:30:47.402Z,5.07
2018-03-22T10:33:14.894Z,5.35
2018-03-22T10:35:42.363Z,5.20
2018-03-22T10:38:09.863Z,5.28
2018-03-22T10:40:37.330Z,5.57
2018-03-22T10:43:04.791Z,4.30
2018-03-22T10:45:32.277Z,4.37
2018-03-22T10:48:00.530Z,4.33
2018-03-22T10:50:28.079Z,5.10
2018-03-22T10:52:55.570Z,4.53
2018-03-22T10:55:23.798Z,4.60
2018-03-22T10:57:51.282Z,4.60
2018-03-22T11:00:24.323Z,4.43
2018-03-22T11:02:53.595Z,4.67
2018-03-22T11:05:21.108Z,4.00
2018-03-22T11:07:48.625Z,4.80
2018-03-22T11:10:16.109Z,4.40
2018-03-22T11:12:43.580Z,4.27
2018-03-22T11:15:11.066Z,4.17
2018-03-22T11:17:38.522Z,3.80
2018-03-22T11:20:06.779Z,3.93
2018-03-22T11:22:34.278Z,4.80
2018-03-22T11:25:02.510Z,4.37
2018-03-22T11:27:30.020Z,3.47
2018-03-22T11:29:58.258Z,4.20
2018-03-22T11:32:25.732Z,3.80
2018-03-22T11:34:53.195Z,4.07
2018-03-22T11:37:21.465Z,4.50
2018-03-22T11:39:48.931Z,5.07
2018-03-22T11:42:17.203Z,10.70
2018-03-22T11:44:45.438Z,5.60
2018-03-22T11:47:12.949Z,7.30
2018-03-22T11:49:41.231Z,5.13
2018-03-22T11:52:08.693Z,6.23
2018-03-22T11:54:36.183Z,10.67
2018-03-22T11:57:03.683Z,5.13
2018-03-22T11:59:31.208Z,5.50
2018-03-22T12:01:58.732Z,4.90
2018-03-22T12:04:26.968Z,6.50
2018-03-22T12:06:54.483Z,9.47
2018-03-22T12:09:21.990Z,9.37
2018-03-22T12:11:49.482Z,5.93
2018-03-22T12:14:16.967Z,5.73
2018-03-22T12:16:44.482Z,9.43
2018-03-22T12:19:12.742Z,4.67
2018-03-22T12:21:40.295Z,11.33
2018-03-22T12:24:07.727Z,9.60
2018-03-22T12:26:35.212Z,4.53
2018-03-22T12:29:02.696Z,6.30
2018-03-22T12:31:30.994Z,10.03
2018-03-22T12:33:58.445Z,4.80
2018-03-22T12:36:25.950Z,9.37
2018-03-22T12:38:53.435Z,8.87
2018-03-22T12:41:21.708Z,4.60
2018-03-22T12:43:49.948Z,5.03
2018-03-22T12:46:17.414Z,5.33
2018-03-22T12:48:44.904Z,6.10
2018-03-22T12:51:13.173Z,5.37
2018-03-22T12:53:41.413Z,4.57
2018-03-22T12:56:08.875Z,4.47
2018-03-22T12:58:36.386Z,3.40
2018-03-22T13:01:03.860Z,4.20
2018-03-22T13:03:31.365Z,3.47
2018-03-22T13:05:58.829Z,5.47
2018-03-22T13:08:26.357Z,4.22
2018-03-22T13:10:53.822Z,4.70
2018-03-22T13:13:21.313Z,4.12
2018-03-22T13:15:48.812Z,5.30
2018-03-22T13:18:16.301Z,4.65
2018-03-22T13:20:43.755Z,5.25
2018-03-22T13:23:11.241Z,4.95
2018-03-22T13:25:38.728Z,4.65
2018-03-22T13:28:06.268Z,5.15
2018-03-22T13:30:33.744Z,4.85
2018-03-22T13:33:01.215Z,4.87
2018-03-22T13:35:28.711Z,5.32
2018-03-22T13:37:56.162Z,4.78
2018-03-22T13:40:23.682Z,5.47
2018-03-22T13:42:51.151Z,4.68
2018-03-22T13:45:18.631Z,4.53
2018-03-22T13:47:46.114Z,4.90
2018-03-22T13:50:13.599Z,4.65
2018-03-22T13:52:41.852Z,4.53
2018-03-22T13:55:09.323Z,4.43
2018-03-22T13:57:37.571Z,4.30
2018-03-22T14:00:05.038Z,4.50
2018-03-22T14:02:32.666Z,3.97
2018-03-22T14:05:00.132Z,4.25
2018-03-22T14:07:27.624Z,4.03
2018-03-22T14:09:55.910Z,3.97
2018-03-22T14:12:24.198Z,4.50
2018-03-22T14:14:52.472Z,4.03
2018-03-22T14:17:20.683Z,4.45
2018-03-22T14:19:48.168Z,4.50
2018-03-22T14:22:15.673Z,4.32
2018-03-22T14:24:43.167Z,4.85
2018-03-22T14:27:10.641Z,3.40
2018-03-22T14:29:38.151Z,4.45
2018-03-22T14:32:05.645Z,3.87
2018-03-22T14:34:33.104Z,4.12
2018-03-22T14:37:00.579Z,4.20
2018-03-22T14:39:28.066Z,4.20
2018-03-22T14:41:56.341Z,3.70
2018-03-22T14:44:24.662Z,3.62
2018-03-22T14:46:52.155Z,4.10
2018-03-22T14:49:19.613Z,3.83
2018-03-22T14:51:47.985Z,3.72
2018-03-22T14:54:15.433Z,3.97
2018-03-22T14:56:42.905Z,5.47
2018-03-22T14:59:10.395Z,12.10
2018-03-22T15:01:38.656Z,6.50
2018-03-22T15:04:06.902Z,5.47
2018-03-22T15:06:34.367Z,4.30
2018-03-22T15:09:01.969Z,4.32
2018-03-22T15:11:29.435Z,3.92
2018-03-22T15:13:56.911Z,4.53
2018-03-22T15:16:24.388Z,4.82
2018-03-22T15:18:51.864Z,5.28
2018-03-22T15:21:19.348Z,5.30
2018-03-22T15:23:46.858Z,4.75
2018-03-22T15:26:14.486Z,5.53
2018-03-22T15:28:41.985Z,8.02
2018-03-22T15:31:09.494Z,5.25
2018-03-22T15:33:36.965Z,7.68
2018-03-22T15:36:04.471Z,5.12
2018-03-22T15:38:31.981Z,5.57
2018-03-22T15:40:59.516Z,5.03
2018-03-22T15:43:27.781Z,5.68
2018-03-22T15:45:56.026Z,5.25
2018-03-22T15:48:23.523Z,5.55
2018-03-22T15:50:51.766Z,7.22
2018-03-22T15:53:19.295Z,5.50
2018-03-22T15:55:46.765Z,4.78
2018-03-22T15:58:14.220Z,5.57
2018-03-22T16:00:41.737Z,5.07
2018-03-22T16:03:09.984Z,5.37
2018-03-22T16:05:37.505Z,4.93
2018-03-22T16:08:05.060Z,5.03
2018-03-22T16:10:32.538Z,6.28
2018-03-22T16:13:00.074Z,5.70
2018-03-22T16:15:27.543Z,15.40
2018-03-22T16:17:55.106Z,6.10
2018-03-22T16:20:22.624Z,6.60
2018-03-22T16:22:50.873Z,7.22
2018-03-22T16:25:18.346Z,9.27
2018-03-22T16:27:46.650Z,6.65
2018-03-22T16:30:14.114Z,7.22
2018-03-22T16:32:41.613Z,6.03
2018-03-22T16:35:09.083Z,9.43
2018-03-22T16:37:36.628Z,5.25
2018-03-22T16:40:04.131Z,5.75
2018-03-22T16:42:31.688Z,6.40
2018-03-22T16:44:59.176Z,5.35
2018-03-22T16:47:26.671Z,5.22
2018-03-22T16:49:54.198Z,5.47
2018-03-22T16:52:21.732Z,5.32
2018-03-22T16:54:49.257Z,6.28
2018-03-22T16:57:16.916Z,7.05
2018-03-22T16:59:44.479Z,6.37
2018-03-22T17:02:11.959Z,6.93
2018-03-22T17:04:40.214Z,6.32
2018-03-22T17:07:08.523Z,7.00
2018-03-22T17:09:36.016Z,6.28
2018-03-22T17:12:03.496Z,7.60
2018-03-22T17:14:31.163Z,25.77
2018-03-22T17:16:58.628Z,11.77
2018-03-22T17:19:26.108Z,18.98
2018-03-22T17:21:54.443Z,7.93
2018-03-22T17:24:22.042Z,6.50
2018-03-22T17:26:50.310Z,10.90
2018-03-22T17:29:18.534Z,6.32
2018-03-22T17:31:46.048Z,9.45
2018-03-22T17:34:13.683Z,8.80
2018-03-22T17:36:41.211Z,14.00
2018-03-22T17:39:08.697Z,8.30
2018-03-22T17:41:36.264Z,10.05
2018-03-22T17:44:04.131Z,7.45
2018-03-22T17:46:31.606Z,7.80
2018-03-22T17:48:59.914Z,8.40
2018-03-22T17:51:27.408Z,9.18
2018-03-22T17:53:54.925Z,12.90
2018-03-22T17:56:23.173Z,7.65
2018-03-22T17:58:51.457Z,8.50
2018-03-22T18:01:19.705Z,9.27
2018-03-22T18:03:47.219Z,8.38
2018-03-22T18:06:14.694Z,10.13
2018-03-22T18:08:42.344Z,7.95
2018-03-22T18:11:09.887Z,8.27
2018-03-22T18:13:39.392Z,9.63
2018-03-22T18:16:08.823Z,9.05
2018-03-22T18:18:36.933Z,8.88
2018-03-22T18:21:05.823Z,9.85
2018-03-22T18:23:34.082Z,8.63
2018-03-22T18:26:02.067Z,8.40
2018-03-22T18:28:30.910Z,8.18
2018-03-22T18:30:58.461Z,9.70
2018-03-22T18:33:27.074Z,19.12
2018-03-22T18:35:56.044Z,16.02
2018-03-22T18:38:25.067Z,9.80
2018-03-22T18:40:53.962Z,12.20
2018-03-22T18:43:22.897Z,9.55
2018-03-22T18:45:51.103Z,9.15
2018-03-22T18:48:19.646Z,9.45
2018-03-22T18:50:48.628Z,11.93
2018-03-22T18:53:16.229Z,10.18
2018-03-22T18:55:43.723Z,10.38
2018-03-22T18:58:11.237Z,8.68
2018-03-22T19:00:38.719Z,10.10
2018-03-22T19:03:06.199Z,8.93
2018-03-22T19:05:33.724Z,11.77
2018-03-22T19:08:01.198Z,10.95
2018-03-22T19:10:28.709Z,10.60
2018-03-22T19:12:57.002Z,9.45
2018-03-22T19:15:24.514Z,8.98
2018-03-22T19:17:51.992Z,8.30
2018-03-22T19:20:19.492Z,7.82
2018-03-22T19:22:47.039Z,9.75
2018-03-22T19:25:14.547Z,9.63
2018-03-22T19:27:42.023Z,10.05
2018-03-22T19:30:09.538Z,8.75
2018-03-22T19:32:37.018Z,9.73
2018-03-22T19:35:04.532Z,9.55
2018-03-22T19:37:32.027Z,14.65
2018-03-22T19:39:59.629Z,9.45
2018-03-22T19:42:27.870Z,9.82
2018-03-22T19:44:55.385Z,10.85
2018-03-22T19:47:22.934Z,14.93
2018-03-22T19:49:51.246Z,12.60
2018-03-22T19:52:18.770Z,10.75
2018-03-22T19:54:46.290Z,11.45
2018-03-22T19:57:13.770Z,15.90
2018-03-22T19:59:42.020Z,18.40
2018-03-22T20:02:09.543Z,13.75
2018-03-22T20:04:37.042Z,17.00
2018-03-22T20:07:04.547Z,14.63
2018-03-22T20:09:32.034Z,16.77
2018-03-22T20:11:59.562Z,19.12
2018-03-22T20:14:27.034Z,18.20
2018-03-22T20:16:54.545Z,17.58
2018-03-22T20:19:22.099Z,17.27
2018-03-22T20:21:50.364Z,17.08
2018-03-22T20:24:17.933Z,16.00
2018-03-22T20:26:45.416Z,18.20
2018-03-22T20:29:13.833Z,16.85
2018-03-22T20:31:41.319Z,16.42
2018-03-22T20:34:08.807Z,16.73
2018-03-22T20:36:37.051Z,16.12
2018-03-22T20:39:04.693Z,15.48
2018-03-22T20:41:32.172Z,15.93
2018-03-22T20:43:59.682Z,16.45
2018-03-22T20:46:27.163Z,15.18
2018-03-22T20:48:54.680Z,17.30
2018-03-22T20:51:22.930Z,16.55
2018-03-22T20:53:50.429Z,21.67
2018-03-22T20:56:18.729Z,15.57
2018-03-22T20:58:46.239Z,15.40
2018-03-22T21:01:13.765Z,15.02
2018-03-22T21:03:41.242Z,15.75
2018-03-22T21:06:08.790Z,19.35
2018-03-22T21:08:36.255Z,17.05
2018-03-22T21:11:03.770Z,16.45
2018-03-22T21:13:31.535Z,15.00
2018-03-22T21:15:59.050Z,19.58
2018-03-22T21:18:28.155Z,17.70
2018-03-22T21:20:55.707Z,16.23
2018-03-22T21:23:23.181Z,16.27
2018-03-22T21:25:51.465Z,18.45
2018-03-22T21:28:19.769Z,17.60
2018-03-22T21:30:47.264Z,16.98
2018-03-22T21:33:15.311Z,17.25
2018-03-22T21:35:42.787Z,17.98
2018-03-22T21:38:10.299Z,20.55
2018-03-22T21:40:37.806Z,17.70
2018-03-22T21:43:05.307Z,17.58
2018-03-22T21:45:33.589Z,18.48
2018-03-22T21:48:01.835Z,15.25
2018-03-22T21:50:41.336Z,16.33
2018-03-22T21:53:08.813Z,17.48
2018-03-22T21:55:36.310Z,15.25
2018-03-22T21:58:04.561Z,15.80
2018-03-22T22:00:32.067Z,16.87
2018-03-22T22:02:59.583Z,15.80
2018-03-22T22:05:27.089Z,15.10
2018-03-22T22:07:54.614Z,15.50
2018-03-22T22:10:22.866Z,15.52
2018-03-22T22:12:50.383Z,14.50
2018-03-22T22:15:17.926Z,15.80
2018-03-22T22:17:45.386Z,16.00
2018-03-22T22:20:12.908Z,14.85
2018-03-22T22:22:40.381Z,15.73
2018-03-22T22:25:08.640Z,14.95
2018-03-22T22:27:36.128Z,15.50
2018-03-22T22:30:03.621Z,15.90
2018-03-22T22:32:31.120Z,14.63
2018-03-22T22:34:58.578Z,15.60
2018-03-22T22:37:26.831Z,15.80
2018-03-22T22:39:54.329Z,15.95
2018-03-22T22:42:22.634Z,16.20
2018-03-22T22:44:50.090Z,15.35
2018-03-22T22:47:17.575Z,14.40
2018-03-22T22:49:45.066Z,14.25
2018-03-22T22:52:12.539Z,15.15
2018-03-22T22:54:40.810Z,16.05
2018-03-22T22:57:09.055Z,16.40
2018-03-22T22:59:36.563Z,15.93
2018-03-22T23:02:04.022Z,15.10
2018-03-22T23:04:31.535Z,14.15
2018-03-22T23:06:59.119Z,14.48
2018-03-22T23:09:27.393Z,15.77
2018-03-22T23:11:54.858Z,15.77
2018-03-22T23:14:23.119Z,15.80
2018-03-22T23:16:51.752Z,14.55
2018-03-22T23:19:19.239Z,14.48
2018-03-22T23:21:46.695Z,13.90
2018-03-22T23:24:14.205Z,13.93
2018-03-22T23:26:41.739Z,14.30
2018-03-22T23:29:09.205Z,14.15
2018-03-22T23:31:37.444Z,13.70
2018-03-22T23:34:04.944Z,15.10
2018-03-22T23:36:33.169Z,13.80
2018-03-22T23:39:00.625Z,13.57
2018-03-22T23:41:28.116Z,14.73
2018-03-22T23:43:55.563Z,14.02
2018-03-22T23:46:23.057Z,14.75
2018-03-22T23:48:50.538Z,16.35
2018-03-22T23:51:18.017Z,13.93
2018-03-22T23:53:45.480Z,15.38
2018-03-22T23:56:12.957Z,13.57
2018-03-22T23:58:40.437Z,14.57
